Time;durP1;ratioP1;P1;durP2;ratioP2;P2;SDS_P1;SDS_P2;PMS_P1;PMS_P2;Temp;Humidity;BMP_temperature;BMP_pressure;BME280_temperature;BME280_humidity;BME280_pressure;Samples;Min_cycle;Max_cycle;Signal;HPM_P1;HPM_P2
2023/10/15 00:00:12;;;;;;;;;;;;;;;11.54;54.31;98091.09;4966091;28;19928;-63
2023/10/15 00:02:41;;;;;;;;;;;;;;;11.48;54.07;98093.13;4971540;28;19985;-63
2023/10/15 00:05:12;;;;;;;;;;;;;;;11.40;54.39;98096.63;4965636;28;19957;-63
2023/10/15 00:07:41;;;;;;;;;;;;;;;11.39;54.40;98097.72;4964150;28;19922;-63
2023/10/15 00:10:11;;;;;;;;;;;;;;;11.40;54.20;98101.25;4969134;28;19926;-63
2023/10/15 00:12:38;;;;;;;;;;;;;;;11.39;54.26;98095.00;4966281;28;19922;-63
2023/10/15 00:15:08;;;;;;;;;;;;;;;11.35;54.71;98107.66;4954083;28;19972;-63
2023/10/15 00:17:36;;;;;;;;;;;;;;;11.37;54.41;98096.44;4963705;28;19938;-63
2023/10/15 00:20:06;;;;;;;;;;;;;;;11.41;54.34;98098.22;4978011;28;19922;-63
2023/10/15 00:22:36;;;;;;;;;;;;;;;11.46;54.44;98097.31;4965270;28;19922;-63
2023/10/15 00:25:11;;;;;;;;;;;;;;;11.39;54.11;98105.88;4974043;28;20261;-63
2023/10/15 00:27:39;;;;;;;;;;;;;;;11.36;54.24;98103.81;4972058;28;19976;-63
2023/10/15 00:30:12;;;;;;;;;;;;;;;11.36;54.45;98106.53;4973307;28;19926;-63
2023/10/15 00:32:43;;;;;;;;;;;;;;;11.39;54.75;98113.25;4971602;28;19922;-63
2023/10/15 00:35:12;;;;;;;;;;;;;;;11.37;54.69;98116.28;4952475;28;19922;-63
2023/10/15 00:37:51;;;;;;;;;;;;;;;11.37;54.67;98113.56;4966720;28;19922;-63
2023/10/15 00:40:19;;;;;;;;;;;;;;;11.33;54.65;98119.94;4957477;28;19922;-62
2023/10/15 00:42:47;;;;;;;;;;;;;;;11.31;54.75;98120.25;4968521;28;19962;-63
2023/10/15 00:45:15;;;;;;;;;;;;;;;11.33;54.86;98118.00;4952827;28;19929;-63
2023/10/15 00:47:43;;;;;;;;;;;;;;;11.20;54.66;98122.41;4955576;28;19928;-63
2023/10/15 00:50:11;;;;;;;;;;;;;;;11.19;54.97;98115.38;4972849;28;19926;-63
2023/10/15 00:52:43;;;;;;;;;;;;;;;11.12;55.30;98116.91;4951619;28;20356;-63
2023/10/15 00:55:16;;;;;;;;;;;;;;;11.00;55.36;98114.75;4961402;28;19929;-63
2023/10/15 00:57:46;;;;;;;;;;;;;;;11.05;55.59;98111.91;4973829;28;19922;-63
2023/10/15 01:02:57;;;;;;;;;;;;;;;11.00;55.68;98107.41;4950896;28;19929;-63
2023/10/15 01:05:26;;;;;;;;;;;;;;;11.04;55.95;98109.50;4975992;28;19922;-63
2023/10/15 01:07:55;;;;;;;;;;;;;;;11.05;56.09;98108.41;4965873;28;19934;-65
2023/10/15 01:10:33;;;;;;;;;;;;;;;11.10;56.01;98103.63;4970024;28;19937;-63
2023/10/15 01:13:15;;;;;;;;;;;;;;;11.06;56.13;98107.28;4973978;28;19930;-63
2023/10/15 01:15:45;;;;;;;;;;;;;;;11.08;55.98;98107.75;4972158;28;19922;-63
2023/10/15 01:18:13;;;;;;;;;;;;;;;11.10;56.13;98102.84;4958929;28;19921;-63
2023/10/15 01:20:42;;;;;;;;;;;;;;;11.12;56.06;98106.03;4964220;28;19930;-63
2023/10/15 01:23:28;;;;;;;;;;;;;;;11.06;56.11;98101.84;4974059;28;20157;-64
2023/10/15 01:25:59;;;;;;;;;;;;;;;11.01;56.04;98106.28;4974182;28;19928;-63
2023/10/15 01:28:36;;;;;;;;;;;;;;;11.02;56.40;98097.03;4981274;28;20339;-63
2023/10/15 01:31:06;;;;;;;;;;;;;;;11.03;56.28;98097.84;4968902;28;20360;-63
2023/10/15 01:33:45;;;;;;;;;;;;;;;10.88;56.60;98088.13;4951004;28;19934;-63
2023/10/15 01:36:17;;;;;;;;;;;;;;;10.89;56.88;98097.88;4971577;28;19977;-63
2023/10/15 01:38:45;;;;;;;;;;;;;;;10.90;56.99;98096.78;4976443;28;20275;-62
2023/10/15 01:41:19;;;;;;;;;;;;;;;10.94;56.92;98099.69;4972532;28;20365;-63
2023/10/15 01:43:48;;;;;;;;;;;;;;;10.89;57.09;98108.75;4974034;28;19926;-63
2023/10/15 01:46:25;;;;;;;;;;;;;;;10.84;57.15;98092.56;4967134;28;19926;-63
2023/10/15 01:48:53;;;;;;;;;;;;;;;10.86;57.36;98095.78;4974416;28;19957;-63
2023/10/15 01:51:22;;;;;;;;;;;;;;;10.90;57.49;98094.06;4973969;28;19942;-63
2023/10/15 01:53:50;;;;;;;;;;;;;;;11.01;57.43;98098.13;4974944;28;19930;-63
2023/10/15 01:56:23;;;;;;;;;;;;;;;10.99;57.32;98089.50;4957193;28;20316;-62
2023/10/15 01:58:52;;;;;;;;;;;;;;;10.91;57.83;98098.38;4947567;28;19937;-63
2023/10/15 02:01:31;;;;;;;;;;;;;;;10.90;57.81;98091.34;4940049;29;19922;-63
2023/10/15 02:03:59;;;;;;;;;;;;;;;10.91;58.02;98098.38;4948136;29;19974;-63
2023/10/15 02:06:30;;;;;;;;;;;;;;;10.87;58.71;98097.41;4935287;29;19926;-63
2023/10/15 02:08:59;;;;;;;;;;;;;;;10.83;58.94;98093.69;4951582;28;19973;-63
2023/10/15 02:11:28;;;;;;;;;;;;;;;10.73;59.55;98094.72;4945531;28;19923;-64
2023/10/15 02:14:00;;;;;;;;;;;;;;;10.70;59.90;98099.97;4952517;28;20369;-63
2023/10/15 02:16:32;;;;;;;;;;;;;;;10.68;60.05;98096.75;4940950;29;20484;-63
2023/10/15 02:19:00;;;;;;;;;;;;;;;10.68;60.72;98097.56;4960463;28;19922;-63
2023/10/15 02:21:31;;;;;;;;;;;;;;;10.62;60.74;98092.56;4949953;28;19922;-63
2023/10/15 02:24:08;;;;;;;;;;;;;;;10.62;61.24;98098.00;4952849;28;19954;-63
2023/10/15 02:26:38;;;;;;;;;;;;;;;10.68;60.81;98097.56;4956705;28;19981;-63
2023/10/15 02:29:07;;;;;;;;;;;;;;;10.76;61.29;98096.03;4953753;28;19926;-63
2023/10/15 02:31:41;;;;;;;;;;;;;;;10.78;60.88;98096.53;4954308;28;20707;-62
2023/10/15 02:34:14;;;;;;;;;;;;;;;10.78;61.04;98103.88;4940414;29;19923;-64
2023/10/15 02:36:43;;;;;;;;;;;;;;;10.73;61.09;98099.38;4937126;28;19927;-63
2023/10/15 02:39:10;;;;;;;;;;;;;;;10.72;60.92;98097.75;4958658;28;19928;-63
2023/10/15 02:41:41;;;;;;;;;;;;;;;10.71;61.48;98096.16;4937267;29;20332;-63
2023/10/15 02:44:13;;;;;;;;;;;;;;;10.72;60.90;98100.47;4951732;29;19930;-63
2023/10/15 02:46:47;;;;;;;;;;;;;;;10.75;61.08;98097.13;4953716;28;19929;-63
2023/10/15 02:49:16;;;;;;;;;;;;;;;10.70;61.15;98094.53;4954703;28;19935;-63
2023/10/15 02:51:45;;;;;;;;;;;;;;;10.77;61.07;98097.66;4955844;28;20361;-63
2023/10/15 02:54:27;;;;;;;;;;;;;;;10.56;61.08;98102.75;4953082;28;19922;-63
2023/10/15 02:56:56;;;;;;;;;;;;;;;10.47;61.34;98099.94;4951508;28;19922;-63
2023/10/15 02:59:29;;;;;;;;;;;;;;;10.43;61.64;98101.66;4961707;28;19942;-63
2023/10/15 03:02:06;;;;;;;;;;;;;;;10.36;61.97;98104.00;4952130;28;19922;-63
2023/10/15 03:04:37;;;;;;;;;;;;;;;10.35;62.16;98104.31;4960623;28;20320;-63
2023/10/15 03:07:18;;;;;;;;;;;;;;;10.33;62.29;98101.88;4970199;28;19923;-63
2023/10/15 03:09:49;;;;;;;;;;;;;;;10.32;62.34;98105.69;4970699;28;19945;-63
2023/10/15 03:12:19;;;;;;;;;;;;;;;10.31;62.27;98111.44;4971175;28;20672;-62
2023/10/15 03:14:46;;;;;;;;;;;;;;;10.32;62.25;98111.13;4971025;28;20360;-63
2023/10/15 03:17:24;;;;;;;;;;;;;;;10.30;62.55;98121.50;4974207;28;20008;-63
2023/10/15 03:19:54;;;;;;;;;;;;;;;10.20;62.61;98116.25;4970924;28;19934;-63
2023/10/15 03:22:24;;;;;;;;;;;;;;;10.17;62.49;98116.84;4968864;28;19929;-63
2023/10/15 03:24:53;;;;;;;;;;;;;;;10.08;62.87;98115.97;4969198;28;19922;-63
2023/10/15 03:27:26;;;;;;;;;;;;;;;9.95;63.25;98118.38;4969468;28;19930;-63
2023/10/15 03:29:56;;;;;;;;;;;;;;;10.01;63.21;98112.84;4966248;28;19927;-63
2023/10/15 03:32:27;;;;;;;;;;;;;;;9.98;63.22;98112.34;4972242;28;19926;-63
2023/10/15 03:34:59;;;;;;;;;;;;;;;9.97;63.04;98099.91;4970112;28;20257;-63
2023/10/15 03:37:28;;;;;;;;;;;;;;;9.97;62.96;98105.31;4970757;28;20519;-62
2023/10/15 03:39:55;;;;;;;;;;;;;;;10.03;62.90;98108.72;4971691;28;19948;-62
2023/10/15 03:42:27;;;;;;;;;;;;;;;10.04;62.79;98107.63;4970423;28;19962;-63
2023/10/15 03:45:00;;;;;;;;;;;;;;;10.04;62.91;98109.53;4971697;28;19926;-63
2023/10/15 03:47:28;;;;;;;;;;;;;;;10.01;63.25;98110.94;4970388;28;20253;-63
2023/10/15 03:49:56;;;;;;;;;;;;;;;10.00;63.17;98111.25;4971378;28;20426;-63
2023/10/15 03:52:27;;;;;;;;;;;;;;;10.07;62.94;98126.03;4969281;28;19937;-63
2023/10/15 03:54:55;;;;;;;;;;;;;;;10.01;62.88;98116.34;4969556;28;19922;-63
2023/10/15 03:57:27;;;;;;;;;;;;;;;9.87;63.36;98121.81;4969303;28;19926;-63
2023/10/15 03:59:55;;;;;;;;;;;;;;;9.91;63.41;98122.00;4970474;28;19927;-63
2023/10/15 04:02:26;;;;;;;;;;;;;;;9.85;63.39;98129.41;4979318;28;19954;-63
2023/10/15 04:05:07;;;;;;;;;;;;;;;9.90;63.34;98118.47;4973998;28;19925;-63
2023/10/15 04:07:39;;;;;;;;;;;;;;;9.89;63.36;98122.28;4967041;28;19922;-63
2023/10/15 04:10:08;;;;;;;;;;;;;;;9.85;63.38;98115.84;4977917;28;19922;-63
2023/10/15 04:12:40;;;;;;;;;;;;;;;9.86;63.29;98117.50;4965299;28;19926;-62
2023/10/15 04:15:14;;;;;;;;;;;;;;;9.87;63.28;98116.38;4963099;28;19922;-63
2023/10/15 04:17:44;;;;;;;;;;;;;;;9.86;63.42;98114.78;4973698;28;19922;-63
2023/10/15 04:20:15;;;;;;;;;;;;;;;9.81;63.62;98120.28;4968861;28;19922;-63
2023/10/15 04:22:46;;;;;;;;;;;;;;;9.78;63.62;98115.47;4966011;28;19929;-63
2023/10/15 04:25:23;;;;;;;;;;;;;;;9.77;63.91;98113.84;4964380;28;19929;-63
2023/10/15 04:27:52;;;;;;;;;;;;;;;9.79;63.65;98108.13;4969276;28;19926;-63
2023/10/15 04:30:20;;;;;;;;;;;;;;;9.72;63.69;98105.81;4971532;28;20327;-63
2023/10/15 04:32:48;;;;;;;;;;;;;;;9.70;63.63;98110.75;4961196;28;19923;-63
2023/10/15 04:35:18;;;;;;;;;;;;;;;9.61;63.90;98110.63;4968620;28;19922;-63
2023/10/15 04:37:46;;;;;;;;;;;;;;;9.60;64.01;98105.50;4965567;28;19932;-62
2023/10/15 04:40:16;;;;;;;;;;;;;;;9.61;63.91;98096.25;4968608;28;20657;-63
2023/10/15 04:42:49;;;;;;;;;;;;;;;9.60;63.89;98103.59;4965710;28;19922;-62
2023/10/15 04:45:24;;;;;;;;;;;;;;;9.58;63.85;98107.69;4966807;28;19922;-63
2023/10/15 04:47:55;;;;;;;;;;;;;;;9.56;63.97;98104.50;4966047;28;19933;-63
2023/10/15 04:50:28;;;;;;;;;;;;;;;9.52;64.00;98106.19;4962556;28;19934;-63
2023/10/15 04:53:03;;;;;;;;;;;;;;;9.48;64.14;98099.75;4967029;28;19933;-63
2023/10/15 04:55:31;;;;;;;;;;;;;;;9.58;64.00;98113.13;4963425;28;19926;-62
2023/10/15 04:57:58;;;;;;;;;;;;;;;9.53;64.00;98116.72;4967803;28;19934;-62
2023/10/15 05:00:27;;;;;;;;;;;;;;;9.38;64.24;98098.84;4967444;28;19934;-63
2023/10/15 05:02:55;;;;;;;;;;;;;;;9.43;64.08;98108.81;4964595;28;20490;-64
2023/10/15 05:05:22;;;;;;;;;;;;;;;9.40;64.30;98112.91;4972133;28;19926;-63
2023/10/15 05:07:50;;;;;;;;;;;;;;;9.41;64.45;98114.50;4969139;28;19922;-63
2023/10/15 05:10:20;;;;;;;;;;;;;;;9.37;64.42;98113.50;4969487;28;19922;-63
2023/10/15 05:12:48;;;;;;;;;;;;;;;9.34;64.46;98110.59;4968727;28;19939;-63
2023/10/15 05:15:16;;;;;;;;;;;;;;;9.38;64.41;98117.84;4965227;28;19934;-63
2023/10/15 05:17:47;;;;;;;;;;;;;;;9.29;64.40;98114.19;4968684;28;20739;-62
2023/10/15 05:20:15;;;;;;;;;;;;;;;9.28;64.21;98118.00;4965970;28;19922;-63
2023/10/15 05:22:43;;;;;;;;;;;;;;;9.23;64.59;98109.16;4965834;28;20383;-63
2023/10/15 05:25:17;;;;;;;;;;;;;;;9.19;64.76;98108.94;4968420;28;19956;-63
2023/10/15 05:27:44;;;;;;;;;;;;;;;9.17;64.99;98111.16;4972411;28;19922;-62
2023/10/15 05:30:12;;;;;;;;;;;;;;;9.12;64.82;98112.03;4973480;28;20360;-63
2023/10/15 05:32:41;;;;;;;;;;;;;;;9.16;64.99;98114.94;4970959;28;20412;-63
2023/10/15 05:35:10;;;;;;;;;;;;;;;9.23;64.93;98109.16;4970336;28;20267;-63
2023/10/15 05:37:39;;;;;;;;;;;;;;;9.23;64.60;98118.09;4971835;28;19969;-63
2023/10/15 05:40:08;;;;;;;;;;;;;;;9.23;64.63;98112.66;4969963;28;20400;-63
2023/10/15 05:42:36;;;;;;;;;;;;;;;9.25;64.56;98115.88;4968765;28;19922;-63
2023/10/15 05:45:06;;;;;;;;;;;;;;;9.27;64.53;98110.97;4970548;28;20530;-63
2023/10/15 05:47:35;;;;;;;;;;;;;;;9.31;64.58;98122.00;4970690;28;19922;-62
2023/10/15 05:50:04;;;;;;;;;;;;;;;9.28;64.20;98119.91;4974098;28;19929;-63
2023/10/15 05:52:33;;;;;;;;;;;;;;;9.27;64.13;98113.69;4979663;28;19930;-63
2023/10/15 05:55:01;;;;;;;;;;;;;;;9.32;64.08;98121.75;4973872;28;19922;-63
2023/10/15 05:57:29;;;;;;;;;;;;;;;9.35;64.21;98115.72;4982931;28;19921;-63
2023/10/15 06:00:17;;;;;;;;;;;;;;;9.31;64.03;98128.25;4953167;28;19934;-63
2023/10/15 06:02:45;;;;;;;;;;;;;;;9.32;64.01;98127.16;4935715;28;20420;-63
2023/10/15 06:05:14;;;;;;;;;;;;;;;9.28;64.03;98131.56;4957725;28;19960;-63
2023/10/15 06:07:43;;;;;;;;;;;;;;;9.27;63.80;98142.69;4955700;28;20558;-62
2023/10/15 06:10:12;;;;;;;;;;;;;;;9.25;64.13;98140.28;4959568;28;19929;-63
2023/10/15 06:12:40;;;;;;;;;;;;;;;9.22;64.07;98132.75;4957877;28;20736;-63
2023/10/15 06:15:08;;;;;;;;;;;;;;;9.24;64.27;98138.69;4957318;28;19927;-63
2023/10/15 06:17:36;;;;;;;;;;;;;;;9.17;64.42;98146.38;4951021;28;20020;-63
2023/10/15 06:20:12;;;;;;;;;;;;;;;9.21;64.35;98135.75;4951295;28;19922;-63
2023/10/15 06:22:40;;;;;;;;;;;;;;;9.25;64.75;98143.00;4956032;28;20011;-63
2023/10/15 06:25:11;;;;;;;;;;;;;;;9.26;64.55;98139.16;4948427;28;19953;-62
2023/10/15 06:27:39;;;;;;;;;;;;;;;9.26;64.46;98143.78;4953275;29;20393;-62
2023/10/15 06:30:09;;;;;;;;;;;;;;;9.29;64.61;98149.44;4954221;28;19923;-62
2023/10/15 06:32:40;;;;;;;;;;;;;;;9.28;64.26;98164.09;4951997;29;19973;-62
2023/10/15 06:35:08;;;;;;;;;;;;;;;9.19;64.17;98160.44;4953448;28;19934;-63
2023/10/15 06:37:38;;;;;;;;;;;;;;;9.19;64.62;98163.16;4951987;28;19938;-62
2023/10/15 06:40:08;;;;;;;;;;;;;;;9.25;64.49;98159.25;4952356;29;20238;-63
2023/10/15 06:42:39;;;;;;;;;;;;;;;9.22;64.57;98170.72;4936516;29;19922;-62
2023/10/15 06:45:07;;;;;;;;;;;;;;;9.29;64.32;98165.69;4954923;29;19977;-62
2023/10/15 06:47:35;;;;;;;;;;;;;;;9.36;64.34;98170.75;4954039;28;19957;-62
2023/10/15 06:50:06;;;;;;;;;;;;;;;9.35;64.20;98169.94;4949766;28;19933;-63
2023/10/15 06:52:36;;;;;;;;;;;;;;;9.33;63.97;98168.63;4953883;29;19930;-62
2023/10/15 06:55:05;;;;;;;;;;;;;;;9.36;64.25;98168.81;4953526;29;19922;-62
2023/10/15 06:57:33;;;;;;;;;;;;;;;9.33;63.88;98165.94;4954421;29;19933;-62
2023/10/15 07:00:02;;;;;;;;;;;;;;;9.36;63.85;98168.81;4971395;28;19929;-62
2023/10/15 07:02:29;;;;;;;;;;;;;;;9.40;63.76;98169.84;4970424;28;19965;-62
2023/10/15 07:04:57;;;;;;;;;;;;;;;9.45;63.46;98168.97;4964423;28;19930;-62
2023/10/15 07:07:26;;;;;;;;;;;;;;;9.51;63.67;98172.38;4972748;28;19936;-62
2023/10/15 07:09:54;;;;;;;;;;;;;;;9.55;63.33;98178.84;4971430;28;20227;-63
2023/10/15 07:12:22;;;;;;;;;;;;;;;9.44;63.47;98173.59;4973283;28;19922;-62
2023/10/15 07:14:50;;;;;;;;;;;;;;;9.50;63.57;98181.63;4968902;28;19958;-64
2023/10/15 07:17:19;;;;;;;;;;;;;;;9.47;63.62;98179.50;4973410;28;20027;-63
2023/10/15 07:19:47;;;;;;;;;;;;;;;9.43;63.35;98180.13;4973515;28;19922;-63
2023/10/15 07:22:16;;;;;;;;;;;;;;;9.44;63.50;98175.50;4972376;28;19922;-62
2023/10/15 07:24:44;;;;;;;;;;;;;;;9.44;63.11;98181.72;4967342;28;20013;-63
2023/10/15 07:27:11;;;;;;;;;;;;;;;9.51;63.48;98185.94;4970410;28;20347;-62
2023/10/15 07:29:40;;;;;;;;;;;;;;;9.58;63.54;98186.34;4970927;28;20323;-63
2023/10/15 07:32:08;;;;;;;;;;;;;;;9.65;63.26;98190.31;4966321;28;19937;-63
2023/10/15 07:34:37;;;;;;;;;;;;;;;9.68;63.04;98194.31;4965384;28;20008;-62
2023/10/15 07:37:05;;;;;;;;;;;;;;;9.66;63.03;98191.13;4967767;28;19922;-62
2023/10/15 07:39:32;;;;;;;;;;;;;;;9.68;63.01;98191.63;4971564;28;19922;-62
2023/10/15 07:42:06;;;;;;;;;;;;;;;9.75;62.96;98191.22;4968939;28;19948;-62
2023/10/15 07:44:34;;;;;;;;;;;;;;;9.80;62.78;98197.38;4968367;28;19997;-62
2023/10/15 07:47:04;;;;;;;;;;;;;;;9.82;62.53;98195.16;4969661;28;20257;-62
2023/10/15 07:49:32;;;;;;;;;;;;;;;9.86;62.80;98195.38;4969830;28;19922;-63
2023/10/15 07:52:01;;;;;;;;;;;;;;;9.82;62.11;98189.75;4972310;28;20353;-64
2023/10/15 07:54:30;;;;;;;;;;;;;;;9.82;62.31;98188.94;4973939;28;20320;-63
2023/10/15 07:56:58;;;;;;;;;;;;;;;9.89;62.18;98190.13;4972339;28;19934;-63
2023/10/15 07:59:26;;;;;;;;;;;;;;;9.97;62.09;98196.78;4969201;28;19922;-64
2023/10/15 08:01:56;;;;;;;;;;;;;;;10.01;61.92;98202.41;4968509;28;19933;-62
2023/10/15 08:04:24;;;;;;;;;;;;;;;10.05;62.04;98198.81;4973204;28;19933;-63
2023/10/15 08:06:53;;;;;;;;;;;;;;;10.04;61.84;98189.06;4973315;28;19930;-63
2023/10/15 08:09:25;;;;;;;;;;;;;;;10.08;61.56;98181.13;4973014;28;19926;-63
2023/10/15 08:11:53;;;;;;;;;;;;;;;10.13;61.81;98178.31;4967269;28;20364;-62
2023/10/15 08:14:20;;;;;;;;;;;;;;;10.18;61.54;98180.94;4972718;28;19941;-63
2023/10/15 08:16:48;;;;;;;;;;;;;;;10.21;61.57;98185.72;4970332;28;20345;-62
2023/10/15 08:19:16;;;;;;;;;;;;;;;10.25;61.53;98181.34;4970933;28;19945;-63
2023/10/15 08:21:44;;;;;;;;;;;;;;;10.33;61.83;98188.78;4967235;28;19973;-63
2023/10/15 08:24:14;;;;;;;;;;;;;;;10.25;60.54;98189.50;4970115;28;19922;-62
2023/10/15 08:26:43;;;;;;;;;;;;;;;10.23;61.06;98194.41;4970306;28;19973;-63
2023/10/15 08:29:12;;;;;;;;;;;;;;;10.27;60.85;98181.84;4969689;28;19964;-63
2023/10/15 08:31:43;;;;;;;;;;;;;;;10.25;60.46;98184.06;4952689;28;19933;-63
2023/10/15 08:34:12;;;;;;;;;;;;;;;10.23;60.36;98181.66;4970731;28;19980;-63
2023/10/15 08:36:40;;;;;;;;;;;;;;;10.26;60.62;98185.66;4971765;28;19922;-62
2023/10/15 08:39:07;;;;;;;;;;;;;;;10.26;60.71;98185.66;4973498;28;19929;-63
2023/10/15 08:41:37;;;;;;;;;;;;;;;10.23;61.02;98191.69;4970347;28;19922;-63
2023/10/15 08:44:07;;;;;;;;;;;;;;;10.23;61.29;98194.41;4974000;28;19929;-63
2023/10/15 08:46:36;;;;;;;;;;;;;;;10.23;61.42;98184.38;4972989;28;19934;-63
2023/10/15 08:49:05;;;;;;;;;;;;;;;10.25;61.29;98194.13;4969355;28;19922;-62
2023/10/15 08:51:34;;;;;;;;;;;;;;;10.18;61.20;98189.88;4983738;28;19922;-63
2023/10/15 08:54:05;;;;;;;;;;;;;;;10.23;61.35;98194.41;4969524;28;20373;-63
2023/10/15 08:56:33;;;;;;;;;;;;;;;10.28;61.30;98194.34;4972480;28;20283;-62
2023/10/15 08:59:00;;;;;;;;;;;;;;;10.30;61.41;98192.09;4969021;28;19977;-64
2023/10/15 09:01:30;;;;;;;;;;;;;;;10.36;61.06;98182.75;4968297;28;19926;-62
2023/10/15 09:03:58;;;;;;;;;;;;;;;10.40;61.23;98185.66;4969611;28;19926;-66
2023/10/15 09:06:26;;;;;;;;;;;;;;;10.35;61.06;98186.56;4966300;28;20022;-63
2023/10/15 09:08:53;;;;;;;;;;;;;;;10.39;61.10;98193.03;4973110;28;19922;-63
2023/10/15 09:11:21;;;;;;;;;;;;;;;10.42;60.92;98194.31;4973116;28;20291;-63
2023/10/15 09:13:52;;;;;;;;;;;;;;;10.43;60.35;98188.56;4971135;28;19976;-62
2023/10/15 09:16:20;;;;;;;;;;;;;;;10.49;60.20;98187.38;4975442;28;19922;-62
2023/10/15 09:18:50;;;;;;;;;;;;;;;10.39;60.02;98186.78;4975953;28;19934;-63
2023/10/15 09:21:23;;;;;;;;;;;;;;;10.44;60.43;98182.06;4962246;28;19957;-63
2023/10/15 09:23:51;;;;;;;;;;;;;;;10.52;60.24;98180.53;4975201;28;19957;-63
2023/10/15 09:26:19;;;;;;;;;;;;;;;10.61;59.93;98184.13;4968509;28;19928;-62
2023/10/15 09:28:47;;;;;;;;;;;;;;;10.66;58.52;98188.66;4959253;28;19922;-63
2023/10/15 09:31:15;;;;;;;;;;;;;;;10.67;57.53;98177.47;4974011;28;19922;-63
2023/10/15 09:33:43;;;;;;;;;;;;;;;10.68;56.94;98172.84;4968294;28;20431;-64
2023/10/15 09:36:12;;;;;;;;;;;;;;;10.75;57.48;98168.59;4971623;28;19932;-63
2023/10/15 09:38:40;;;;;;;;;;;;;;;10.84;55.58;98176.81;4975148;28;19922;-64
2023/10/15 09:41:10;;;;;;;;;;;;;;;10.97;55.67;98183.31;4970917;28;19929;-63
2023/10/15 09:43:37;;;;;;;;;;;;;;;11.02;54.24;98177.78;4971734;28;19926;-63
2023/10/15 09:46:06;;;;;;;;;;;;;;;11.06;54.17;98180.69;4970846;28;19930;-62
2023/10/15 09:48:36;;;;;;;;;;;;;;;11.09;52.32;98177.38;4970537;28;19926;-63
2023/10/15 09:51:04;;;;;;;;;;;;;;;11.13;54.02;98176.44;4966927;28;19941;-63
2023/10/15 09:53:34;;;;;;;;;;;;;;;11.06;52.34;98178.78;4960890;28;20371;-63
2023/10/15 09:56:07;;;;;;;;;;;;;;;11.10;52.18;98174.34;4962102;28;19965;-63
2023/10/15 09:58:35;;;;;;;;;;;;;;;11.12;52.23;98176.72;4967517;28;19934;-62
2023/10/15 10:01:08;;;;;;;;;;;;;;;11.09;52.41;98171.94;4969975;28;19934;-63
2023/10/15 10:03:59;;;;;;;;;;;;;;;11.13;52.41;98178.34;4970353;28;19926;-62
2023/10/15 10:06:36;;;;;;;;;;;;;;;11.17;53.00;98163.81;4965428;28;19938;-64
2023/10/15 10:09:10;;;;;;;;;;;;;;;11.26;51.79;98170.13;4970828;28;19922;-63
2023/10/15 10:11:45;;;;;;;;;;;;;;;11.30;51.10;98161.38;4970388;28;19934;-63
2023/10/15 10:14:37;;;;;;;;;;;;;;;11.39;51.38;98162.22;4971990;28;19977;-63
2023/10/15 10:17:08;;;;;;;;;;;;;;;11.42;51.19;98165.13;4954152;28;19926;-63
2023/10/15 10:19:36;;;;;;;;;;;;;;;11.56;51.32;98173.22;4971880;28;19933;-63
2023/10/15 10:22:09;;;;;;;;;;;;;;;11.59;49.52;98155.44;4968659;28;19922;-63
2023/10/15 10:24:45;;;;;;;;;;;;;;;11.65;49.77;98156.94;4968580;28;19926;-63
2023/10/15 10:27:15;;;;;;;;;;;;;;;11.66;49.58;98169.41;4968650;28;20059;-64
2023/10/15 10:29:44;;;;;;;;;;;;;;;11.64;49.10;98163.50;4968795;28;19933;-62
2023/10/15 10:32:13;;;;;;;;;;;;;;;11.59;49.74;98155.44;4972166;28;20091;-62
2023/10/15 10:34:42;;;;;;;;;;;;;;;11.68;50.09;98156.31;4967668;28;19926;-63
2023/10/15 10:37:19;;;;;;;;;;;;;;;11.73;50.90;98158.91;4970075;28;20339;-62
2023/10/15 10:39:49;;;;;;;;;;;;;;;11.68;53.07;98167.19;4972209;28;20339;-64
2023/10/15 10:42:21;;;;;;;;;;;;;;;11.49;55.62;98168.19;4964845;28;21203;-65
2023/10/15 10:44:49;;;;;;;;;;;;;;;11.28;55.15;98162.47;4954345;28;19926;-62
2023/10/15 10:47:21;;;;;;;;;;;;;;;11.25;56.60;98159.56;4968999;28;19934;-63
2023/10/15 10:49:56;;;;;;;;;;;;;;;11.12;55.12;98153.06;4975363;28;19922;-63
2023/10/15 10:52:31;;;;;;;;;;;;;;;11.11;57.12;98150.66;4974992;28;19926;-63
2023/10/15 10:55:15;;;;;;;;;;;;;;;11.02;57.26;98150.59;4973829;28;19926;-63
2023/10/15 10:57:45;;;;;;;;;;;;;;;10.99;57.11;98160.19;4971871;28;19948;-63
2023/10/15 11:00:13;;;;;;;;;;;;;;;11.01;57.39;98159.84;4965844;28;20273;-63
2023/10/15 11:02:41;;;;;;;;;;;;;;;11.07;57.75;98165.97;4953298;28;20291;-63
2023/10/15 11:05:11;;;;;;;;;;;;;;;11.02;56.70;98156.03;4969371;28;19922;-63
2023/10/15 11:07:40;;;;;;;;;;;;;;;11.05;56.52;98154.63;4970549;28;19922;-63
2023/10/15 11:10:09;;;;;;;;;;;;;;;11.06;56.93;98151.59;4973948;28;19934;-63
2023/10/15 11:12:38;;;;;;;;;;;;;;;11.12;56.54;98149.53;4967936;28;19996;-63
2023/10/15 11:15:08;;;;;;;;;;;;;;;11.14;56.28;98150.06;4970413;28;19922;-64
2023/10/15 11:17:36;;;;;;;;;;;;;;;11.18;54.54;98142.88;4971223;28;19922;-63
2023/10/15 11:20:04;;;;;;;;;;;;;;;11.22;52.92;98133.78;4972484;28;20419;-63
2023/10/15 11:22:32;;;;;;;;;;;;;;;11.28;52.15;98137.97;4953356;28;19926;-64
2023/10/15 11:25:00;;;;;;;;;;;;;;;11.37;50.57;98124.44;4973191;28;19973;-64
2023/10/15 11:27:31;;;;;;;;;;;;;;;11.40;48.27;98118.41;4972917;28;19926;-63
2023/10/15 11:30:02;;;;;;;;;;;;;;;11.41;49.16;98114.56;4948701;28;19945;-63
2023/10/15 11:32:31;;;;;;;;;;;;;;;11.42;51.01;98123.50;4969223;28;20253;-63
2023/10/15 11:35:00;;;;;;;;;;;;;;;11.42;51.39;98132.47;4972317;28;19926;-64
2023/10/15 11:37:29;;;;;;;;;;;;;;;11.43;51.79;98127.84;4966963;28;19937;-63
2023/10/15 11:39:56;;;;;;;;;;;;;;;11.39;51.98;98130.38;4969357;28;19926;-63
2023/10/15 11:42:24;;;;;;;;;;;;;;;11.30;52.30;98129.53;4971284;28;19941;-63
2023/10/15 11:44:56;;;;;;;;;;;;;;;11.30;52.13;98137.69;4966173;28;19922;-63
2023/10/15 11:47:27;;;;;;;;;;;;;;;11.28;52.57;98142.63;4967717;28;20016;-64
2023/10/15 11:49:59;;;;;;;;;;;;;;;11.32;51.72;98138.16;4968336;28;19926;-63
2023/10/15 11:52:30;;;;;;;;;;;;;;;11.22;49.30;98146.59;4969139;28;19924;-63
2023/10/15 11:55:00;;;;;;;;;;;;;;;11.04;48.63;98158.44;4971754;28;19981;-63
2023/10/15 11:57:29;;;;;;;;;;;;;;;10.89;48.72;98154.97;4969601;28;19922;-63
2023/10/15 11:59:57;;;;;;;;;;;;;;;10.76;49.31;98174.84;4970682;28;19922;-63
2023/10/15 12:02:27;;;;;;;;;;;;;;;10.69;49.10;98174.44;4967627;28;20269;-63
2023/10/15 12:05:00;;;;;;;;;;;;;;;10.61;49.46;98167.03;4970797;28;19933;-63
2023/10/15 12:07:29;;;;;;;;;;;;;;;10.66;49.19;98166.91;4956011;28;20253;-63
2023/10/15 12:09:58;;;;;;;;;;;;;;;10.51;48.73;98173.47;4967206;28;19934;-63
2023/10/15 12:12:27;;;;;;;;;;;;;;;10.45;49.03;98175.50;4964681;28;20372;-63
2023/10/15 12:14:54;;;;;;;;;;;;;;;10.42;48.51;98176.09;4967565;28;20353;-63
2023/10/15 12:17:22;;;;;;;;;;;;;;;10.43;49.87;98183.13;4969200;28;19922;-63
2023/10/15 12:19:50;;;;;;;;;;;;;;;10.40;49.14;98178.31;4968796;28;20369;-63
2023/10/15 12:22:35;;;;;;;;;;;;;;;10.49;49.58;98171.09;4962327;28;19983;-63
2023/10/15 12:25:04;;;;;;;;;;;;;;;10.63;50.20;98170.25;4966819;28;19928;-63
2023/10/15 12:27:32;;;;;;;;;;;;;;;10.75;50.28;98156.91;4969859;28;20049;-63
2023/10/15 12:30:03;;;;;;;;;;;;;;;10.78;49.65;98145.44;4971584;28;20402;-63
2023/10/15 12:32:34;;;;;;;;;;;;;;;10.75;49.53;98144.13;4966978;28;20380;-63
2023/10/15 12:35:13;;;;;;;;;;;;;;;10.82;49.63;98146.44;4968108;28;20353;-64
2023/10/15 12:37:42;;;;;;;;;;;;;;;10.86;49.56;98152.84;4962886;28;19929;-63
2023/10/15 12:40:12;;;;;;;;;;;;;;;10.90;49.70;98145.69;4966429;28;19922;-64
2023/10/15 12:42:41;;;;;;;;;;;;;;;10.89;49.37;98146.00;4965728;28;19930;-63
2023/10/15 12:45:10;;;;;;;;;;;;;;;10.97;49.25;98151.53;4964699;28;20016;-63
2023/10/15 12:47:39;;;;;;;;;;;;;;;10.94;49.53;98143.19;4965360;28;19922;-63
2023/10/15 12:50:14;;;;;;;;;;;;;;;11.04;50.16;98148.38;4968988;28;19934;-63
2023/10/15 12:52:44;;;;;;;;;;;;;;;11.14;50.26;98156.28;4970001;28;20439;-63
2023/10/15 12:55:15;;;;;;;;;;;;;;;11.23;50.00;98151.69;4968570;28;19922;-63
2023/10/15 12:57:42;;;;;;;;;;;;;;;11.19;50.29;98161.63;4966833;28;19926;-63
2023/10/15 13:00:16;;;;;;;;;;;;;;;11.14;51.94;98163.66;4968889;28;20409;-63
2023/10/15 13:02:44;;;;;;;;;;;;;;;11.11;51.17;98150.66;4967756;28;19942;-63
2023/10/15 13:05:14;;;;;;;;;;;;;;;10.96;50.99;98147.19;4970987;28;20323;-63
2023/10/15 13:07:43;;;;;;;;;;;;;;;11.01;51.44;98157.94;4970464;28;19933;-62